Time;durP1;ratioP1;P1;durP2;ratioP2;P2;SDS_P1;SDS_P2;PMS_P1;PMS_P2;Temp;Humidity;BMP_temperature;BMP_pressure;BME280_temperature;BME280_humidity;BME280_pressure;Samples;Min_cycle;Max_cycle;Signal;HPM_P1;HPM_P2
2023/12/18 00:00:14;;;;;;;0.40;0.40;;;;;;;3.84;100.00;103180.50;5094739;28;20050;-49
2023/12/18 00:02:40;;;;;;;0.40;0.40;;;;;;;3.86;100.00;103184.97;5094756;28;20031;-48
2023/12/18 00:05:06;;;;;;;0.40;0.40;;;;;;;3.89;100.00;103177.59;5094611;28;20376;-48
2023/12/18 00:07:31;;;;;;;0.40;0.40;;;;;;;3.93;100.00;103181.34;5094456;28;20027;-49
2023/12/18 00:09:56;;;;;;;0.50;0.50;;;;;;;3.96;100.00;103179.06;5094724;28;20039;-47
2023/12/18 00:12:22;;;;;;;0.40;0.40;;;;;;;4.00;100.00;103173.50;5094083;28;20024;-47
2023/12/18 00:14:47;;;;;;;0.38;0.38;;;;;;;4.02;100.00;103177.09;5094711;28;20028;-50
2023/12/18 00:17:12;;;;;;;0.40;0.40;;;;;;;4.04;100.00;103177.25;5094491;28;20434;-48
2023/12/18 00:19:37;;;;;;;0.40;0.40;;;;;;;4.05;100.00;103168.84;5094161;28;20024;-47
2023/12/18 00:22:03;;;;;;;0.40;0.40;;;;;;;4.04;100.00;103167.03;5094603;28;20024;-49
2023/12/18 00:24:28;;;;;;;0.40;0.40;;;;;;;4.04;100.00;103159.38;5094458;28;20026;-50
2023/12/18 00:26:53;;;;;;;0.40;0.40;;;;;;;4.04;100.00;103149.16;5093695;28;20032;-50
2023/12/18 00:29:19;;;;;;;0.40;0.40;;;;;;;4.04;100.00;103155.19;5094033;28;20024;-50
2023/12/18 00:31:44;;;;;;;0.40;0.40;;;;;;;4.04;100.00;103160.28;5093951;28;20024;-50
2023/12/18 00:34:09;;;;;;;0.40;0.40;;;;;;;4.04;100.00;103150.09;5093908;28;20057;-44
2023/12/18 00:36:34;;;;;;;0.40;0.40;;;;;;;4.03;100.00;103155.03;5094273;28;20024;-49
2023/12/18 00:39:00;;;;;;;0.40;0.40;;;;;;;4.03;100.00;103157.56;5094222;28;20020;-47
2023/12/18 00:41:25;;;;;;;0.40;0.40;;;;;;;4.03;100.00;103145.72;5093556;28;20020;-46
2023/12/18 00:43:50;;;;;;;0.30;0.30;;;;;;;4.03;100.00;103148.28;5094145;28;20430;-47
2023/12/18 00:46:15;;;;;;;0.32;0.32;;;;;;;4.03;100.00;103142.25;5093692;28;20056;-49
2023/12/18 00:48:41;;;;;;;0.30;0.30;;;;;;;4.03;100.00;103147.38;5093525;28;20530;-50
2023/12/18 00:51:10;;;;;;;0.40;0.40;;;;;;;4.02;100.00;103145.59;5093851;28;20073;-50
2023/12/18 00:53:35;;;;;;;0.30;0.30;;;;;;;4.02;100.00;103130.28;5094289;28;20024;-47
2023/12/18 00:56:00;;;;;;;0.40;0.40;;;;;;;4.02;100.00;103143.94;5093602;28;20169;-50
2023/12/18 00:58:25;;;;;;;0.40;0.40;;;;;;;4.03;100.00;103150.84;5093695;28;20035;-45
2023/12/18 01:00:50;;;;;;;0.40;0.40;;;;;;;4.03;100.00;103144.81;5093879;28;20024;-46
2023/12/18 01:03:16;;;;;;;0.40;0.40;;;;;;;4.01;100.00;103139.56;5093223;28;20024;-48
2023/12/18 01:05:41;;;;;;;0.40;0.40;;;;;;;4.01;100.00;103134.47;5093511;28;20387;-49
2023/12/18 01:08:08;;;;;;;0.40;0.40;;;;;;;4.01;100.00;103138.69;5093432;28;20035;-50
2023/12/18 01:10:33;;;;;;;0.30;0.30;;;;;;;4.02;100.00;103135.38;5093557;28;20028;-46
2023/12/18 01:12:58;;;;;;;0.40;0.40;;;;;;;4.01;100.00;103148.91;5093606;28;20348;-48
2023/12/18 01:15:23;;;;;;;0.40;0.40;;;;;;;4.01;100.00;103148.91;5092836;28;20021;-48
2023/12/18 01:17:49;;;;;;;0.40;0.40;;;;;;;4.02;100.00;103143.03;5093315;28;20651;-50
2023/12/18 01:20:14;;;;;;;0.50;0.50;;;;;;;4.03;100.00;103129.50;5093504;28;20022;-48
2023/12/18 01:22:39;;;;;;;0.30;0.30;;;;;;;4.03;100.00;103132.06;5093081;28;20016;-50
2023/12/18 01:25:05;;;;;;;0.40;0.40;;;;;;;4.03;100.00;103119.28;5093344;28;20414;-51
2023/12/18 01:27:30;;;;;;;0.40;0.40;;;;;;;4.04;100.00;103128.75;5093126;28;20036;-49
2023/12/18 01:29:56;;;;;;;0.40;0.40;;;;;;;4.06;100.00;103129.81;5092884;28;20103;-49
2023/12/18 01:32:21;;;;;;;0.35;0.35;;;;;;;4.06;100.00;103127.25;5092773;28;20103;-48
2023/12/18 01:34:46;;;;;;;0.30;0.30;;;;;;;4.07;100.00;103124.84;5093328;28;20028;-50
2023/12/18 01:37:11;;;;;;;0.40;0.40;;;;;;;4.08;100.00;103131.75;5092703;28;20020;-50
2023/12/18 01:39:37;;;;;;;0.40;0.40;;;;;;;4.11;100.00;103141.34;5093031;28;20030;-50
2023/12/18 01:42:02;;;;;;;0.40;0.40;;;;;;;4.14;100.00;103141.63;5093332;28;20039;-48
2023/12/18 01:44:28;;;;;;;0.40;0.40;;;;;;;4.17;100.00;103136.81;5092370;28;20052;-50
2023/12/18 01:46:53;;;;;;;0.40;0.40;;;;;;;4.23;100.00;103145.00;5092807;28;20568;-45
2023/12/18 01:49:19;;;;;;;0.35;0.35;;;;;;;4.26;100.00;103146.94;5092687;28;20119;-50
2023/12/18 01:51:45;;;;;;;0.50;0.50;;;;;;;4.28;100.00;103138.69;5092391;28;20051;-48
2023/12/18 01:54:11;;;;;;;0.30;0.30;;;;;;;4.32;100.00;103141.53;5093040;28;20048;-49
2023/12/18 01:56:38;;;;;;;0.45;0.45;;;;;;;4.34;100.00;103140.91;5093027;28;20434;-49
2023/12/18 01:59:05;;;;;;;0.30;0.30;;;;;;;4.37;100.00;103141.19;5092453;28;20495;-48
2023/12/18 02:01:31;;;;;;;0.30;0.30;;;;;;;4.41;100.00;103139.81;5092440;28;20024;-49
2023/12/18 02:03:57;;;;;;;0.40;0.40;;;;;;;4.41;100.00;103130.50;5093171;28;20023;-48
2023/12/18 02:06:23;;;;;;;0.30;0.30;;;;;;;4.42;100.00;103127.19;5092266;28;20024;-49
2023/12/18 02:08:48;;;;;;;0.30;0.30;;;;;;;4.44;100.00;103123.13;5092551;28;20479;-48
2023/12/18 02:11:14;;;;;;;0.30;0.30;;;;;;;4.44;100.00;103123.13;5092255;28;20016;-50
2023/12/18 02:13:40;;;;;;;0.40;0.40;;;;;;;4.44;100.00;103122.22;5092869;28;20085;-48
2023/12/18 02:16:06;;;;;;;0.32;0.32;;;;;;;4.42;100.00;103119.53;5092536;28;20032;-50
2023/12/18 02:18:32;;;;;;;0.40;0.40;;;;;;;4.41;100.00;103122.84;5092213;28;20028;-47
2023/12/18 02:20:57;;;;;;;0.40;0.40;;;;;;;4.41;100.00;103121.94;5092868;28;20069;-47
2023/12/18 02:23:23;;;;;;;0.30;0.30;;;;;;;4.40;100.00;103117.59;5092466;28;20090;-47
2023/12/18 02:25:48;;;;;;;0.40;0.40;;;;;;;4.39;100.00;103118.34;5092364;28;20020;-48
2023/12/18 02:28:15;;;;;;;0.40;0.40;;;;;;;4.39;100.00;103118.34;5091639;28;20080;-48
2023/12/18 02:30:41;;;;;;;0.40;0.40;;;;;;;4.41;100.00;103111.72;5092534;28;20472;-46
2023/12/18 02:33:06;;;;;;;0.32;0.32;;;;;;;4.40;100.00;103099.72;5092266;28;20024;-48
2023/12/18 02:35:31;;;;;;;0.40;0.40;;;;;;;4.40;100.00;103104.81;5092255;28;20056;-45
2023/12/18 02:37:57;;;;;;;0.40;0.40;;;;;;;4.38;100.00;103103.81;5092798;28;20128;-50
2023/12/18 02:40:24;;;;;;;0.30;0.30;;;;;;;4.37;100.00;103104.56;5091803;28;20020;-49
2023/12/18 02:42:50;;;;;;;0.40;0.40;;;;;;;4.37;100.00;103107.13;5092384;28;20027;-49
2023/12/18 02:45:15;;;;;;;0.40;0.40;;;;;;;4.36;100.00;103107.84;5091914;28;20136;-49
2023/12/18 02:47:40;;;;;;;0.40;0.40;;;;;;;4.36;100.00;103102.75;5092192;28;20028;-44
2023/12/18 02:50:06;;;;;;;0.38;0.38;;;;;;;4.36;100.00;103088.31;5092036;28;20020;-46
2023/12/18 02:52:32;;;;;;;0.40;0.40;;;;;;;4.38;100.00;103091.03;5092113;28;20465;-47
2023/12/18 02:54:57;;;;;;;0.30;0.30;;;;;;;4.36;100.00;103080.66;5092033;28;20028;-47
2023/12/18 02:57:22;;;;;;;0.40;0.40;;;;;;;4.36;100.00;103087.44;5092076;28;20024;-48
2023/12/18 02:59:47;;;;;;;0.28;0.28;;;;;;;4.35;100.00;103076.34;5092309;28;20365;-48
2023/12/18 03:02:13;;;;;;;0.40;0.40;;;;;;;4.38;100.00;103080.81;5094245;28;20472;-50
2023/12/18 03:04:40;;;;;;;0.30;0.30;;;;;;;4.38;100.00;103078.28;5096101;28;20084;-49
2023/12/18 03:07:05;;;;;;;0.30;0.30;;;;;;;4.38;100.00;103068.06;5096355;28;20024;-48
2023/12/18 03:09:31;;;;;;;0.40;0.40;;;;;;;4.36;100.00;103073.00;5095215;28;20527;-48
2023/12/18 03:11:56;;;;;;;0.32;0.32;;;;;;;4.38;100.00;103076.59;5095810;28;20024;-49
2023/12/18 03:14:21;;;;;;;0.40;0.40;;;;;;;4.39;100.00;103082.59;5095693;28;20024;-48
2023/12/18 03:16:46;;;;;;;0.30;0.30;;;;;;;4.38;100.00;103078.28;5095607;28;20028;-49
2023/12/18 03:19:12;;;;;;;0.40;0.40;;;;;;;4.36;100.00;103083.22;5095609;28;20026;-47
2023/12/18 03:21:37;;;;;;;0.30;0.30;;;;;;;4.36;100.00;103078.09;5095484;28;20024;-48
2023/12/18 03:24:02;;;;;;;0.40;0.40;;;;;;;4.36;100.00;103079.78;5095925;28;20743;-46
2023/12/18 03:26:28;;;;;;;0.40;0.40;;;;;;;4.35;100.00;103077.97;5095238;28;20028;-49
2023/12/18 03:28:53;;;;;;;0.30;0.30;;;;;;;4.36;100.00;103075.56;5095045;28;20063;-48
2023/12/18 03:31:18;;;;;;;0.43;0.43;;;;;;;4.35;100.00;103077.97;5095345;28;20071;-50
2023/12/18 03:33:44;;;;;;;0.30;0.30;;;;;;;4.36;100.00;103078.09;5095802;28;20103;-49
2023/12/18 03:36:09;;;;;;;0.40;0.40;;;;;;;4.36;100.00;103082.34;5095246;28;20055;-49
2023/12/18 03:38:34;;;;;;;0.30;0.30;;;;;;;4.36;100.00;103079.78;5095424;28;20024;-49
2023/12/18 03:41:00;;;;;;;0.30;0.30;;;;;;;4.34;100.00;103077.09;5095619;28;20028;-49
2023/12/18 03:43:25;;;;;;;0.40;0.40;;;;;;;4.34;100.00;103076.19;5094554;28;20024;-50
2023/12/18 03:45:51;;;;;;;0.40;0.40;;;;;;;4.34;100.00;103084.75;5095107;28;20044;-50
2023/12/18 03:48:18;;;;;;;0.40;0.40;;;;;;;4.34;100.00;103081.28;5095183;28;20043;-50
2023/12/18 03:50:43;;;;;;;0.30;0.30;;;;;;;4.35;100.00;103077.97;5094927;28;20047;-49
2023/12/18 03:53:09;;;;;;;0.40;0.40;;;;;;;4.34;100.00;103083.84;5095156;28;20059;-47
2023/12/18 03:55:35;;;;;;;0.40;0.40;;;;;;;4.33;100.00;103079.50;5095194;28;20020;-49
2023/12/18 03:58:00;;;;;;;0.40;0.40;;;;;;;4.34;100.00;103083.84;5094665;28;20017;-46
2023/12/18 04:00:26;;;;;;;0.30;0.30;;;;;;;4.37;100.00;103077.34;5094746;28;20024;-49
2023/12/18 04:02:52;;;;;;;0.40;0.40;;;;;;;4.37;100.00;103081.59;5095266;28;20070;-49
2023/12/18 04:05:17;;;;;;;0.40;0.40;;;;;;;4.37;100.00;103081.59;5094440;28;20108;-47
2023/12/18 04:07:42;;;;;;;0.40;0.40;;;;;;;4.39;100.00;103090.25;5094731;28;20050;-48
2023/12/18 04:10:08;;;;;;;0.30;0.30;;;;;;;4.37;100.00;103079.91;5094965;28;20024;-45
2023/12/18 04:12:33;;;;;;;0.40;0.40;;;;;;;4.38;100.00;103085.94;5093511;28;20028;-47
2023/12/18 04:14:59;;;;;;;0.40;0.40;;;;;;;4.37;100.00;103079.03;5094699;28;20078;-49
2023/12/18 04:17:24;;;;;;;0.40;0.40;;;;;;;4.36;100.00;103082.34;5094684;28;20040;-48
2023/12/18 04:19:50;;;;;;;0.40;0.40;;;;;;;4.37;100.00;103071.38;5094144;28;20031;-45
2023/12/18 04:22:15;;;;;;;0.30;0.30;;;;;;;4.37;100.00;103077.34;5094314;28;20126;-47
2023/12/18 04:24:40;;;;;;;0.40;0.40;;;;;;;4.36;100.00;103077.22;5094717;28;20036;-47
2023/12/18 04:27:05;;;;;;;0.40;0.40;;;;;;;4.37;100.00;103077.34;5093874;28;20028;-46
2023/12/18 04:29:31;;;;;;;0.30;0.30;;;;;;;4.38;100.00;103070.63;5093959;28;20241;-50
2023/12/18 04:31:56;;;;;;;0.40;0.40;;;;;;;4.39;100.00;103072.38;5094073;28;20028;-47
2023/12/18 04:34:21;;;;;;;0.30;0.30;;;;;;;4.39;100.00;103074.94;5093883;28;20032;-46
2023/12/18 04:36:46;;;;;;;0.30;0.30;;;;;;;4.40;100.00;103070.00;5094605;28;20161;-47
2023/12/18 04:39:12;;;;;;;0.30;0.30;;;;;;;4.39;100.00;103065.63;5093519;28;20028;-49
2023/12/18 04:41:37;;;;;;;0.30;0.30;;;;;;;4.41;100.00;103065.78;5094103;28;20107;-48
2023/12/18 04:44:05;;;;;;;0.40;0.40;;;;;;;4.42;100.00;103072.69;5094344;28;20028;-49
2023/12/18 04:46:35;;;;;;;0.30;0.30;;;;;;;4.42;100.00;103072.69;5093340;28;20044;-48
2023/12/18 04:49:00;;;;;;;0.40;0.40;;;;;;;4.41;100.00;103061.56;5094033;28;20051;-50
2023/12/18 04:51:26;;;;;;;0.40;0.40;;;;;;;4.41;100.00;103061.56;5094170;28;20024;-47
2023/12/18 04:53:51;;;;;;;0.30;0.30;;;;;;;4.43;100.00;103054.06;5093789;28;20065;-50
2023/12/18 04:56:16;;;;;;;0.40;0.40;;;;;;;4.43;100.00;103048.94;5093602;28;20020;-49
2023/12/18 04:58:41;;;;;;;0.40;0.40;;;;;;;4.43;100.00;103059.16;5093968;28;20085;-47
2023/12/18 05:01:09;;;;;;;0.30;0.30;;;;;;;4.44;100.00;103059.28;5093614;28;20035;-49
2023/12/18 05:03:34;;;;;;;0.40;0.40;;;;;;;4.47;100.00;103058.66;5093655;28;20032;-46
2023/12/18 05:06:00;;;;;;;0.40;0.40;;;;;;;4.47;100.00;103058.66;5093941;28;20020;-50
2023/12/18 05:08:25;;;;;;;0.40;0.40;;;;;;;4.49;100.00;103063.91;5093028;28;20020;-45
2023/12/18 05:10:50;;;;;;;0.32;0.32;;;;;;;4.49;100.00;103058.81;5093562;28;20032;-46
2023/12/18 05:13:16;;;;;;;0.40;0.40;;;;;;;4.50;100.00;103064.03;5093395;28;20379;-49
2023/12/18 05:15:41;;;;;;;0.30;0.30;;;;;;;4.52;100.00;103059.06;5093355;28;20464;-47
2023/12/18 05:18:06;;;;;;;0.40;0.40;;;;;;;4.52;100.00;103064.19;5093570;28;20024;-46
2023/12/18 05:20:31;;;;;;;0.40;0.40;;;;;;;4.51;100.00;103047.97;5093138;28;20047;-50
2023/12/18 05:22:57;;;;;;;0.40;0.40;;;;;;;4.51;100.00;103058.19;5093123;28;20028;-49
2023/12/18 05:25:22;;;;;;;0.40;0.40;;;;;;;4.52;100.00;103048.84;5092091;28;20028;-49
2023/12/18 05:27:47;;;;;;;0.35;0.35;;;;;;;4.52;100.00;103064.19;5093371;28;20114;-50
2023/12/18 05:30:13;;;;;;;0.40;0.40;;;;;;;4.51;100.00;103053.06;5092549;28;20031;-46
2023/12/18 05:32:38;;;;;;;0.40;0.40;;;;;;;4.52;100.00;103049.78;5093269;28;20043;-45
2023/12/18 05:35:04;;;;;;;0.30;0.30;;;;;;;4.52;100.00;103059.97;5093292;28;20061;-49
2023/12/18 05:37:29;;;;;;;0.40;0.40;;;;;;;4.51;100.00;103053.06;5092332;28;20032;-46
2023/12/18 05:39:54;;;;;;;0.30;0.30;;;;;;;4.50;100.00;103058.94;5093281;28;20028;-48
2023/12/18 05:42:20;;;;;;;0.40;0.40;;;;;;;4.50;100.00;103058.94;5092248;28;20039;-46
2023/12/18 05:44:45;;;;;;;0.35;0.35;;;;;;;4.50;100.00;103056.38;5092993;28;20162;-46
2023/12/18 05:47:10;;;;;;;0.30;0.30;;;;;;;4.48;100.00;103065.59;5092703;28;20024;-46
2023/12/18 05:49:37;;;;;;;0.35;0.35;;;;;;;4.47;100.00;103068.88;5092846;28;20020;-46
2023/12/18 05:52:03;;;;;;;0.40;0.40;;;;;;;4.45;100.00;103063.66;5092765;28;20486;-46
2023/12/18 05:54:28;;;;;;;0.30;0.30;;;;;;;4.45;100.00;103063.66;5092768;28;20024;-49
2023/12/18 05:56:53;;;;;;;0.35;0.35;;;;;;;4.44;100.00;103060.94;5092562;28;20472;-45
2023/12/18 05:59:19;;;;;;;0.30;0.30;;;;;;;4.43;100.00;103052.38;5092688;28;20036;-47
2023/12/18 06:01:44;;;;;;;0.40;0.40;;;;;;;4.44;100.00;103051.63;5093122;28;20028;-48
2023/12/18 06:04:10;;;;;;;0.30;0.30;;;;;;;4.46;100.00;103054.31;5092383;28;20071;-48
2023/12/18 06:06:35;;;;;;;0.30;0.30;;;;;;;4.43;100.00;103054.94;5092771;28;20036;-45
2023/12/18 06:09:00;;;;;;;0.40;0.40;;;;;;;4.45;100.00;103056.00;5092702;28;20036;-49
2023/12/18 06:11:26;;;;;;;0.40;0.40;;;;;;;4.45;100.00;103050.88;5091994;28;20031;-46
2023/12/18 06:13:51;;;;;;;0.30;0.30;;;;;;;4.44;100.00;103054.19;5092390;28;20024;-46
2023/12/18 06:16:16;;;;;;;0.35;0.35;;;;;;;4.45;100.00;103057.63;5092720;28;20517;-46
2023/12/18 06:18:42;;;;;;;0.32;0.32;;;;;;;4.47;100.00;103051.00;5092403;28;20055;-46
2023/12/18 06:21:07;;;;;;;0.40;0.40;;;;;;;4.47;100.00;103056.13;5092806;28;20522;-49
2023/12/18 06:23:33;;;;;;;0.40;0.40;;;;;;;4.47;100.00;103048.47;5100380;28;20034;-50
2023/12/18 06:25:58;;;;;;;0.38;0.38;;;;;;;4.49;100.00;103054.59;5112524;28;20038;-49
2023/12/18 06:28:23;;;;;;;0.38;0.38;;;;;;;4.49;100.00;103051.16;5112086;28;20062;-50
2023/12/18 06:30:49;;;;;;;0.38;0.38;;;;;;;4.49;100.00;103049.47;5113285;28;20028;-48
2023/12/18 06:33:14;;;;;;;0.40;0.40;;;;;;;4.48;100.00;103057.91;5112303;28;20044;-46
2023/12/18 06:35:40;;;;;;;0.32;0.32;;;;;;;4.48;100.00;103052.81;5113013;28;20028;-48
2023/12/18 06:38:06;;;;;;;0.30;0.30;;;;;;;4.48;100.00;103042.59;5117070;28;20495;-48
2023/12/18 06:40:31;;;;;;;0.38;0.38;;;;;;;4.50;100.00;103047.84;5116094;28;20032;-48
2023/12/18 06:42:56;;;;;;;0.35;0.35;;;;;;;4.50;100.00;103045.28;5116736;28;20031;-49
2023/12/18 06:45:22;;;;;;;0.30;0.30;;;;;;;4.49;100.00;103041.81;5116606;28;20131;-48
2023/12/18 06:47:47;;;;;;;0.40;0.40;;;;;;;4.50;100.00;103041.06;5116240;28;20019;-48
2023/12/18 06:50:12;;;;;;;0.40;0.40;;;;;;;4.51;100.00;103042.88;5116634;28;20356;-50
2023/12/18 06:52:38;;;;;;;0.35;0.35;;;;;;;4.51;100.00;103050.53;5116260;28;20072;-49
2023/12/18 06:55:04;;;;;;;0.40;0.40;;;;;;;4.53;100.00;103053.22;5116481;28;20027;-47
2023/12/18 06:57:29;;;;;;;0.47;0.47;;;;;;;4.55;100.00;103055.13;5116385;28;20502;-48
2023/12/18 06:59:54;;;;;;;0.40;0.40;;;;;;;4.55;100.00;103054.25;5115403;28;20027;-47
2023/12/18 07:02:19;;;;;;;0.30;0.30;;;;;;;4.55;100.00;103060.25;5115845;28;20027;-48
2023/12/18 07:04:45;;;;;;;0.40;0.40;;;;;;;4.55;100.00;103057.69;5116656;28;20031;-49
2023/12/18 07:07:10;;;;;;;0.38;0.38;;;;;;;4.58;100.00;103063.09;5115740;28;20387;-48
2023/12/18 07:09:35;;;;;;;0.40;0.40;;;;;;;4.58;100.00;103065.66;5116167;28;20019;-47
2023/12/18 07:12:00;;;;;;;0.30;0.30;;;;;;;4.60;100.00;103063.22;5116406;28;20020;-45
2023/12/18 07:14:26;;;;;;;0.40;0.40;;;;;;;4.60;100.00;103070.88;5115610;28;20054;-44
2023/12/18 07:16:53;;;;;;;0.30;0.30;;;;;;;4.60;100.00;103074.31;5116241;28;20036;-44
2023/12/18 07:19:18;;;;;;;0.30;0.30;;;;;;;4.59;100.00;103074.19;5116123;28;20483;-44
2023/12/18 07:21:44;;;;;;;0.40;0.40;;;;;;;4.58;100.00;103080.06;5115806;28;20127;-45
2023/12/18 07:24:09;;;;;;;0.40;0.40;;;;;;;4.56;100.00;103077.38;5115807;28;20099;-43
2023/12/18 07:26:34;;;;;;;0.40;0.40;;;;;;;4.57;100.00;103071.50;5116201;28;20027;-47
2023/12/18 07:29:00;;;;;;;0.40;0.40;;;;;;;4.56;100.00;103072.25;5115610;28;20031;-44
2023/12/18 07:31:25;;;;;;;0.40;0.40;;;;;;;4.56;100.00;103073.94;5115544;28;20026;-48
2023/12/18 07:33:51;;;;;;;0.40;0.40;;;;;;;4.57;100.00;103076.63;5115835;28;20016;-46
2023/12/18 07:36:16;;;;;;;0.40;0.40;;;;;;;4.57;100.00;103074.06;5115052;28;20094;-46
2023/12/18 07:38:41;;;;;;;0.30;0.30;;;;;;;4.58;100.00;103069.84;5115427;28;20032;-45
2023/12/18 07:41:07;;;;;;;0.30;0.30;;;;;;;4.59;100.00;103076.75;5115708;28;20019;-47
2023/12/18 07:43:32;;;;;;;0.32;0.32;;;;;;;4.58;100.00;103075.88;5114888;28;20079;-49
2023/12/18 07:45:57;;;;;;;0.32;0.32;;;;;;;4.58;100.00;103072.41;5115512;28;20048;-48
2023/12/18 07:48:24;;;;;;;0.30;0.30;;;;;;;4.56;100.00;103069.72;5114427;28;20035;-45
2023/12/18 07:50:50;;;;;;;0.40;0.40;;;;;;;4.57;100.00;103061.28;5115068;28;20038;-44
2023/12/18 07:53:15;;;;;;;0.40;0.40;;;;;;;4.59;100.00;103061.44;5115271;28;20019;-45
2023/12/18 07:55:40;;;;;;;0.40;0.40;;;;;;;4.60;100.00;103066.66;5115436;28;20143;-47
2023/12/18 07:58:06;;;;;;;0.40;0.40;;;;;;;4.60;100.00;103061.56;5114828;28;20020;-47
2023/12/18 08:00:31;;;;;;;0.40;0.40;;;;;;;4.61;100.00;103058.25;5115348;28;20459;-48
2023/12/18 08:02:56;;;;;;;0.40;0.40;;;;;;;4.61;100.00;103063.34;5100453;28;20032;-46
2023/12/18 08:05:23;;;;;;;0.40;0.40;;;;;;;4.63;100.00;103062.59;5094567;28;20021;-47
2023/12/18 08:07:48;;;;;;;0.40;0.40;;;;;;;4.64;100.00;103054.19;5094905;28;20107;-48
2023/12/18 08:10:14;;;;;;;0.40;0.40;;;;;;;4.66;100.00;103048.47;5093803;28;20063;-50
2023/12/18 08:12:39;;;;;;;0.30;0.30;;;;;;;4.68;100.00;103052.03;5094815;28;20024;-44
2023/12/18 08:15:05;;;;;;;0.40;0.40;;;;;;;4.70;100.00;103050.53;5094814;28;20459;-48
2023/12/18 08:17:37;;;;;;;0.40;0.40;;;;;;;4.73;100.00;103047.34;5094073;28;20115;-48
2023/12/18 08:20:03;;;;;;;0.40;0.40;;;;;;;4.75;100.00;103044.16;5094598;28;20077;-43
2023/12/18 08:22:28;;;;;;;0.40;0.40;;;;;;;4.77;100.00;103041.72;5094397;28;20024;-49
2023/12/18 08:24:54;;;;;;;0.40;0.40;;;;;;;4.78;100.00;103044.41;5094034;28;20404;-48
2023/12/18 08:27:19;;;;;;;0.40;0.40;;;;;;;4.80;100.00;103036.88;5093928;28;20016;-49
2023/12/18 08:29:45;;;;;;;0.30;0.30;;;;;;;4.80;100.00;103042.00;5094652;28;20028;-46
2023/12/18 08:32:10;;;;;;;0.40;0.40;;;;;;;4.83;100.00;103033.69;5093545;28;20028;-48
2023/12/18 08:34:35;;;;;;;0.40;0.40;;;;;;;4.84;100.00;103041.53;5094214;28;20028;-49
2023/12/18 08:37:02;;;;;;;0.40;0.40;;;;;;;4.86;100.00;103044.22;5093983;28;20028;-48
2023/12/18 08:39:27;;;;;;;0.38;0.38;;;;;;;4.87;100.00;103043.47;5093453;28;20024;-48
2023/12/18 08:41:52;;;;;;;0.40;0.40;;;;;;;4.90;100.00;103036.94;5094337;28;20020;-44
2023/12/18 08:44:18;;;;;;;0.43;0.43;;;;;;;4.94;100.00;103040.66;5094197;28;20021;-46
2023/12/18 08:46:43;;;;;;;0.40;0.40;;;;;;;4.98;100.00;103036.72;5093587;28;20480;-48
2023/12/18 08:49:08;;;;;;;0.30;0.30;;;;;;;4.99;100.00;103029.19;5093839;28;20032;-47
2023/12/18 08:51:33;;;;;;;0.30;0.30;;;;;;;5.00;100.00;103019.88;5093809;28;20074;-49
2023/12/18 08:54:04;;;;;;;0.40;0.40;;;;;;;4.99;100.00;103024.06;5093102;28;20028;-50
2023/12/18 08:56:29;;;;;;;0.35;0.35;;;;;;;5.01;100.00;103017.44;5102755;28;20059;-48
2023/12/18 08:58:55;;;;;;;0.40;0.40;;;;;;;5.03;100.00;103025.25;5102124;28;20039;-44
2023/12/18 09:01:21;;;;;;;0.40;0.40;;;;;;;5.02;100.00;103034.59;5092355;28;20031;-48
2023/12/18 09:03:46;;;;;;;0.40;0.40;;;;;;;5.00;100.00;103025.00;5093548;28;20028;-45
2023/12/18 09:06:11;;;;;;;0.40;0.40;;;;;;;5.01;100.00;103031.88;5092494;28;20051;-44
2023/12/18 09:08:39;;;;;;;0.25;0.25;;;;;;;5.01;100.00;103032.78;5093458;28;20107;-45
2023/12/18 09:11:08;;;;;;;;;;;;;;;5.11;100.00;103031.91;5094101;28;20028;-48
2023/12/18 09:13:37;;;;;;;0.30;0.30;;;;;;;5.03;100.00;103028.69;5092707;28;19962;-45
2023/12/18 09:16:03;;;;;;;0.38;0.38;;;;;;;5.05;100.00;103024.63;5093267;28;20024;-48
2023/12/18 09:18:28;;;;;;;0.40;0.40;;;;;;;5.11;100.00;103024.25;5093265;28;20097;-47
2023/12/18 09:20:53;;;;;;;0.40;0.40;;;;;;;5.17;100.00;103024.78;5092790;28;20124;-48
2023/12/18 09:23:19;;;;;;;0.40;0.40;;;;;;;5.21;100.00;103020.84;5092947;28;20383;-48
2023/12/18 09:25:44;;;;;;;0.40;0.40;;;;;;;5.21;100.00;103014.03;5093753;28;20041;-46
2023/12/18 09:28:09;;;;;;;0.30;0.30;;;;;;;5.20;100.00;103025.06;5092369;28;20031;-44
2023/12/18 09:30:34;;;;;;;0.40;0.40;;;;;;;5.18;100.00;103031.69;5092474;28;20028;-48
2023/12/18 09:33:00;;;;;;;0.30;0.30;;;;;;;5.20;100.00;103032.72;5092487;28;20054;-45
2023/12/18 09:35:25;;;;;;;0.30;0.30;;;;;;;5.20;100.00;103035.28;5091980;28;20442;-45
2023/12/18 09:37:50;;;;;;;0.32;0.32;;;;;;;5.19;100.00;103037.69;5092144;28;20490;-50
2023/12/18 09:40:16;;;;;;;0.30;0.30;;;;;;;5.19;100.00;103032.56;5093183;28;20030;-45
2023/12/18 09:42:41;;;;;;;0.40;0.40;;;;;;;5.19;100.00;103033.50;5092979;28;20023;-46
2023/12/18 09:45:08;;;;;;;0.35;0.35;;;;;;;5.21;100.00;103031.06;5092441;28;20048;-46
2023/12/18 09:47:33;;;;;;;0.30;0.30;;;;;;;5.21;100.00;103029.38;5092924;28;20016;-46
2023/12/18 09:49:59;;;;;;;0.30;0.30;;;;;;;5.22;100.00;103023.50;5092436;28;20479;-48
2023/12/18 09:52:31;;;;;;;0.30;0.30;;;;;;;5.23;100.00;103029.53;5092537;28;20078;-47
2023/12/18 09:54:58;;;;;;;0.40;0.40;;;;;;;5.25;100.00;103030.56;5093258;28;20028;-48
2023/12/18 09:57:24;;;;;;;0.40;0.40;;;;;;;5.27;100.00;103022.25;5092106;28;20024;-49
2023/12/18 09:59:50;;;;;;;0.30;0.30;;;;;;;5.31;100.00;103027.63;5093144;28;20024;-48
2023/12/18 10:02:17;;;;;;;0.40;0.40;;;;;;;5.36;100.00;103026.34;5092731;28;20516;-46
2023/12/18 10:04:43;;;;;;;0.30;0.30;;;;;;;5.34;100.00;103018.56;5091784;28;20032;-46
2023/12/18 10:07:08;;;;;;;0.40;0.40;;;;;;;5.31;100.00;103022.50;5092861;28;20039;-50
2023/12/18 10:09:35;;;;;;;0.30;0.30;;;;;;;5.26;100.00;103020.44;5092021;28;20032;-46
2023/12/18 10:12:03;;;;;;;0.30;0.30;;;;;;;5.28;100.00;103008.72;5092159;28;20387;-47
2023/12/18 10:14:28;;;;;;;0.40;0.40;;;;;;;5.31;100.00;103008.06;5092506;28;20388;-46
2023/12/18 10:16:54;;;;;;;0.30;0.30;;;;;;;5.32;100.00;103014.06;5092078;28;20016;-48
2023/12/18 10:19:24;;;;;;;0.40;0.40;;;;;;;5.32;100.00;103008.97;5092190;28;20036;-49
2023/12/18 10:21:49;;;;;;;0.30;0.30;;;;;;;5.34;100.00;103013.44;5092913;28;20020;-48
2023/12/18 10:24:15;;;;;;;0.40;0.40;;;;;;;5.35;100.00;103014.34;5091811;28;20035;-46
2023/12/18 10:26:41;;;;;;;0.30;0.30;;;;;;;5.31;100.00;103012.28;5092682;28;20380;-49
2023/12/18 10:29:07;;;;;;;0.40;0.40;;;;;;;5.29;100.00;103009.59;5092547;28;20034;-47
2023/12/18 10:31:33;;;;;;;0.40;0.40;;;;;;;5.25;100.00;103008.47;5091968;28;20032;-46
2023/12/18 10:34:01;;;;;;;0.40;0.40;;;;;;;5.21;100.00;103005.50;5092208;28;20032;-49
2023/12/18 10:36:31;;;;;;;0.30;0.30;;;;;;;5.18;100.00;103008.69;5092239;28;20059;-49
2023/12/18 10:39:00;;;;;;;0.30;0.30;;;;;;;5.16;100.00;102996.53;5091954;28;20499;-48
2023/12/18 10:41:27;;;;;;;0.30;0.30;;;;;;;5.16;100.00;102997.41;5092129;28;20158;-47
2023/12/18 10:43:54;;;;;;;;;;;;;;;5.30;100.00;102984.94;5093061;28;20024;-48
2023/12/18 10:46:21;;;;;;;0.35;0.35;;;;;;;5.22;100.00;102991.94;5091176;28;19951;-47
2023/12/18 10:48:51;;;;;;;0.40;0.40;;;;;;;5.22;100.00;102981.72;5092458;28;20036;-44
2023/12/18 10:51:18;;;;;;;0.40;0.40;;;;;;;5.25;100.00;102976.88;5092078;28;20526;-48
2023/12/18 10:53:45;;;;;;;0.30;0.30;;;;;;;5.26;100.00;102977.00;5091876;28;20030;-47
2023/12/18 10:56:13;;;;;;;0.30;0.30;;;;;;;5.26;100.00;102973.56;5092206;28;20020;-47
2023/12/18 10:58:40;;;;;;;;;;;;;;;5.34;100.00;102972.53;5092753;28;20036;-46
2023/12/18 11:01:07;;;;;;;0.20;0.20;;;;;;;5.27;100.00;102960.88;5091244;28;20370;-47
2023/12/18 11:03:35;;;;;;;0.30;0.30;;;;;;;5.29;100.00;102961.00;5092057;28;20460;-48
2023/12/18 11:06:01;;;;;;;0.40;0.40;;;;;;;5.31;100.00;102956.03;5091803;28;20047;-48
2023/12/18 11:08:27;;;;;;;0.30;0.30;;;;;;;5.33;100.00;102962.19;5091827;28;20113;-46
2023/12/18 11:10:54;;;;;;;0.40;0.40;;;;;;;5.33;100.00;102962.19;5092390;28;20074;-46
2023/12/18 11:13:25;;;;;;;0.30;0.30;;;;;;;5.33;100.00;102957.94;5091409;28;20051;-49
2023/12/18 11:15:56;;;;;;;0.30;0.30;;;;;;;5.37;100.00;102964.22;5092037;28;20019;-42
2023/12/18 11:18:41;;;;;;;0.50;0.50;;;;;;;5.39;100.00;102962.69;5092132;28;20030;-48